createdAt,value
2019-03-25T00:02:29.448Z,99356.61
2019-03-25T00:04:56.455Z,99355.67
2019-03-25T00:07:23.421Z,99352.13
2019-03-25T00:09:50.793Z,99353.48
2019-03-25T00:12:17.623Z,99348.89
2019-03-25T00:14:44.663Z,99356.72
2019-03-25T00:17:11.911Z,99352.13
2019-03-25T00:19:39.004Z,99349.73
2019-03-25T00:22:06.937Z,99345.39
2019-03-25T00:24:38.918Z,99338.03
2019-03-25T00:27:03.527Z,99334.28
2019-03-25T00:29:30.634Z,99335.44
2019-03-25T00:31:57.547Z,99336.27
2019-03-25T00:34:24.856Z,99327.29
2019-03-25T00:36:51.831Z,99324.28
2019-03-25T00:39:21.759Z,99328.44
2019-03-25T00:41:48.721Z,99328.97
2019-03-25T00:44:15.529Z,99336.65
2019-03-25T00:46:42.545Z,99331.73
2019-03-25T00:49:09.479Z,99331.16
2019-03-25T00:51:36.256Z,99332.53
2019-03-25T00:54:03.144Z,99338.84
2019-03-25T00:56:30.091Z,99333.67
2019-03-25T00:58:57.116Z,99322.55
2019-03-25T01:01:23.960Z,99317.97
2019-03-25T01:03:51.459Z,99324.02
2019-03-25T01:06:18.305Z,99324.58
2019-03-25T01:08:45.168Z,99325.95
2019-03-25T01:11:11.948Z,99315.11
2019-03-25T01:13:38.800Z,99319.44
2019-03-25T01:16:05.731Z,99318.65
2019-03-25T01:18:32.467Z,99318.39
2019-03-25T01:20:59.606Z,99314.89
2019-03-25T01:23:28.082Z,99314.11
2019-03-25T01:25:55.034Z,99312.79
2019-03-25T01:28:21.817Z,99314.10
2019-03-25T01:30:48.690Z,99317.13
2019-03-25T01:33:15.455Z,99313.63
2019-03-25T01:35:42.503Z,99314.67
2019-03-25T01:38:09.324Z,99313.36
2019-03-25T01:40:36.424Z,99309.03
2019-03-25T01:43:03.380Z,99312.57
2019-03-25T01:45:30.214Z,99308.52
2019-03-25T01:47:56.991Z,99312.66
2019-03-25T01:50:23.869Z,99319.13
2019-03-25T01:52:50.755Z,99310.48
2019-03-25T01:55:17.555Z,99314.02
2019-03-25T01:57:44.550Z,99312.05
2019-03-25T02:00:14.255Z,99309.95
2019-03-25T02:02:41.029Z,99309.38
2019-03-25T02:05:07.884Z,99308.67
2019-03-25T02:07:34.916Z,99310.06
2019-03-25T02:10:04.587Z,99308.41
2019-03-25T02:12:31.339Z,99300.54
2019-03-25T02:14:59.597Z,99303.78
2019-03-25T02:17:26.674Z,99305.44
2019-03-25T02:19:53.718Z,99304.34
2019-03-25T02:22:21.015Z,99298.09
2019-03-25T02:24:47.738Z,99301.11
2019-03-25T02:27:14.840Z,99289.75
2019-03-25T02:29:41.998Z,99288.50
2019-03-25T02:32:09.148Z,99287.64
2019-03-25T02:34:39.238Z,99286.21
2019-03-25T02:37:06.344Z,99284.63
2019-03-25T02:39:33.102Z,99288.99
2019-03-25T02:42:00.428Z,99280.91
2019-03-25T02:44:27.285Z,99283.38
2019-03-25T02:46:54.506Z,99285.63
2019-03-25T02:49:21.248Z,99289.42
2019-03-25T02:51:48.001Z,99285.36
2019-03-25T02:54:15.558Z,99287.81
2019-03-25T02:56:42.402Z,99285.39
2019-03-25T02:59:09.183Z,99292.20
2019-03-25T03:01:36.510Z,99298.70
2019-03-25T03:04:03.394Z,99304.97
2019-03-25T03:06:30.497Z,99297.94
2019-03-25T03:08:57.850Z,99292.25
2019-03-25T03:11:24.632Z,99296.84
2019-03-25T03:13:51.478Z,99293.58
2019-03-25T03:16:18.298Z,99291.16
2019-03-25T03:18:45.523Z,99288.22
2019-03-25T03:21:15.554Z,99289.33
2019-03-25T03:23:42.352Z,99292.59
2019-03-25T03:26:09.155Z,99285.59
2019-03-25T03:28:36.282Z,99286.94
2019-03-25T03:31:03.239Z,99286.94
2019-03-25T03:33:29.964Z,99290.41
2019-03-25T03:35:56.791Z,99291.53
2019-03-25T03:38:23.883Z,99293.98
2019-03-25T03:40:50.988Z,99289.95
2019-03-25T03:43:18.110Z,99289.95
2019-03-25T03:45:44.968Z,99292.16
2019-03-25T03:48:11.886Z,99288.64
2019-03-25T03:50:40.260Z,99285.64
2019-03-25T03:53:10.447Z,99284.60
2019-03-25T03:55:38.055Z,99282.18
2019-03-25T03:58:06.356Z,99281.95
2019-03-25T04:00:34.577Z,99282.75
2019-03-25T04:03:02.107Z,99287.08
2019-03-25T04:05:28.944Z,99277.89
2019-03-25T04:07:59.516Z,99279.53
2019-03-25T04:10:26.801Z,99283.58
2019-03-25T04:12:53.696Z,99270.87
2019-03-25T04:15:30.390Z,99276.56
2019-03-25T04:17:57.742Z,99274.14
2019-03-25T04:20:24.513Z,99273.03
2019-03-25T04:22:51.507Z,99278.19
2019-03-25T04:25:18.334Z,99279.55
2019-03-25T04:27:45.129Z,99278.48
2019-03-25T04:30:12.864Z,99280.37
2019-03-25T04:32:39.735Z,99281.98
2019-03-25T04:35:06.834Z,99278.75
2019-03-25T04:37:33.786Z,99281.19
2019-03-25T04:40:00.609Z,99288.22
2019-03-25T04:42:27.677Z,99285.23
2019-03-25T04:44:54.469Z,99289.84
2019-03-25T04:47:21.644Z,99289.84
2019-03-25T04:49:48.595Z,99293.61
2019-03-25T04:52:15.414Z,99287.93
2019-03-25T04:54:42.177Z,99286.31
2019-03-25T04:57:09.104Z,99283.59
2019-03-25T04:59:35.858Z,99286.56
2019-03-25T05:02:02.915Z,99286.84
2019-03-25T05:04:29.901Z,99283.87
2019-03-25T05:06:57.184Z,99283.32
2019-03-25T05:09:24.077Z,99281.12
2019-03-25T05:11:51.191Z,99284.36
2019-03-25T05:14:18.067Z,99282.99
2019-03-25T05:16:45.278Z,99281.38
2019-03-25T05:19:12.556Z,99277.87
2019-03-25T05:21:39.281Z,99279.47
2019-03-25T05:24:06.456Z,99278.11
2019-03-25T05:26:33.217Z,99283.25
2019-03-25T05:29:00.411Z,99284.59
2019-03-25T05:31:27.523Z,99282.98
2019-03-25T05:33:55.371Z,99276.20
2019-03-25T05:36:22.127Z,99282.92
2019-03-25T05:38:49.316Z,99277.55
2019-03-25T05:41:16.106Z,99282.13
2019-03-25T05:43:43.584Z,99275.95
2019-03-25T05:46:10.338Z,99275.42
2019-03-25T05:48:37.373Z,99280.84
2019-03-25T05:51:04.381Z,99276.20
2019-03-25T05:53:31.151Z,99275.71
2019-03-25T05:55:58.346Z,99283.27
2019-03-25T05:58:25.138Z,99273.81
2019-03-25T06:00:51.984Z,99274.10
2019-03-25T06:03:18.774Z,99279.77
2019-03-25T06:05:46.020Z,99283.73
2019-03-25T06:08:13.166Z,99294.52
2019-03-25T06:10:40.227Z,99293.49
2019-03-25T06:13:07.019Z,99287.58
2019-03-25T06:15:33.853Z,99284.59
2019-03-25T06:18:00.873Z,99278.11
2019-03-25T06:20:27.740Z,99282.44
2019-03-25T06:22:54.833Z,99275.98
2019-03-25T06:25:21.782Z,99279.80
2019-03-25T06:27:48.625Z,99281.41
2019-03-25T06:30:16.535Z,99279.24
2019-03-25T06:32:44.034Z,99279.53
2019-03-25T06:35:11.305Z,99280.91
2019-03-25T06:37:38.150Z,99285.22
2019-03-25T06:40:07.124Z,99276.33
2019-03-25T06:42:34.193Z,99279.29
2019-03-25T06:45:01.485Z,99277.14
2019-03-25T06:47:28.353Z,99274.42
2019-03-25T06:49:55.224Z,99273.88
2019-03-25T06:52:21.982Z,99274.15
2019-03-25T06:54:49.030Z,99273.88
2019-03-25T06:57:25.196Z,99274.13
2019-03-25T06:59:45.031Z,99278.21
2019-03-25T07:02:11.829Z,99276.58
2019-03-25T07:04:38.761Z,99283.33
2019-03-25T07:07:05.698Z,99259.83
2019-03-25T07:09:32.942Z,99250.92
2019-03-25T07:11:59.955Z,99254.67
2019-03-25T07:14:28.818Z,99246.29
2019-03-25T07:16:55.818Z,99253.87
2019-03-25T07:19:22.701Z,99252.24
2019-03-25T07:21:49.576Z,99260.35
2019-03-25T07:24:16.763Z,99270.87
2019-03-25T07:26:43.957Z,99267.09
2019-03-25T07:29:10.771Z,99263.26
2019-03-25T07:31:37.670Z,99264.06
2019-03-25T07:34:04.408Z,99271.63
2019-03-25T07:36:31.196Z,99263.71
2019-03-25T07:39:00.154Z,99265.81
2019-03-25T07:41:26.973Z,99266.91
2019-03-25T07:43:53.747Z,99275.84
2019-03-25T07:46:20.626Z,99264.38
2019-03-25T07:48:47.656Z,99273.33
2019-03-25T07:51:15.518Z,99282.83
2019-03-25T07:53:42.249Z,99272.13
2019-03-25T07:56:11.313Z,99284.27
2019-03-25T07:58:38.448Z,99278.35
2019-03-25T08:01:05.678Z,99281.33
2019-03-25T08:03:32.468Z,99267.73
2019-03-25T08:05:59.446Z,99268.73
2019-03-25T08:08:28.717Z,99271.16
2019-03-25T08:10:55.735Z,99271.13
2019-03-25T08:13:23.249Z,99264.97
2019-03-25T08:15:50.524Z,99272.31
2019-03-25T08:18:17.287Z,99266.62
2019-03-25T08:20:45.084Z,99275.36
2019-03-25T08:23:12.264Z,99273.43
2019-03-25T08:25:40.115Z,99269.03
2019-03-25T08:28:07.384Z,99272.24
2019-03-25T08:30:34.769Z,99272.53
2019-03-25T08:33:01.907Z,99279.64
2019-03-25T08:35:29.153Z,99278.55
2019-03-25T08:37:57.221Z,99277.97
2019-03-25T08:40:24.147Z,99270.89
2019-03-25T08:42:51.160Z,99276.06
2019-03-25T08:45:18.537Z,99275.98
2019-03-25T08:47:45.552Z,99277.36
2019-03-25T08:50:15.105Z,99284.08
2019-03-25T08:52:42.489Z,99278.42
2019-03-25T08:55:09.875Z,99284.34
2019-03-25T08:57:37.381Z,99270.53
2019-03-25T09:00:09.344Z,99272.22
2019-03-25T09:02:36.880Z,99268.89
2019-03-25T09:05:07.347Z,99274.63
2019-03-25T09:07:37.964Z,99268.59
2019-03-25T09:10:07.725Z,99271.82
2019-03-25T09:12:34.674Z,99275.48
2019-03-25T09:15:08.199Z,99272.95
2019-03-25T09:17:35.119Z,99279.00
2019-03-25T09:20:06.600Z,99281.30
2019-03-25T09:22:33.610Z,99290.64
2019-03-25T09:25:01.168Z,99308.79
2019-03-25T09:27:28.565Z,99297.71
2019-03-25T09:29:55.904Z,99304.57
2019-03-25T09:32:22.804Z,99291.44
2019-03-25T09:34:49.622Z,99296.29
2019-03-25T09:37:16.552Z,99297.34
2019-03-25T09:39:44.346Z,99300.59
2019-03-25T09:42:11.244Z,99288.42
2019-03-25T09:44:38.507Z,99284.73
2019-03-25T09:47:05.592Z,99285.27
2019-03-25T09:49:34.789Z,99278.83
2019-03-25T09:52:02.005Z,99279.69
2019-03-25T09:54:30.720Z,99279.92
2019-03-25T09:56:57.736Z,99291.21
2019-03-25T09:59:24.972Z,99286.55
2019-03-25T10:01:52.160Z,99285.19
2019-03-25T10:04:20.203Z,99292.23
2019-03-25T10:06:47.653Z,99283.50
2019-03-25T10:09:14.612Z,99284.55
2019-03-25T10:11:41.678Z,99288.05
2019-03-25T10:14:10.605Z,99291.27
2019-03-25T10:16:37.660Z,99290.54
2019-03-25T10:19:04.840Z,99286.47
2019-03-25T10:21:32.101Z,99283.45
2019-03-25T10:23:59.580Z,99282.97
2019-03-25T10:26:26.810Z,99281.58
2019-03-25T10:28:53.779Z,99269.30
2019-03-25T10:31:21.301Z,99271.30
2019-03-25T10:33:49.010Z,99277.58
2019-03-25T10:36:16.352Z,99273.60
2019-03-25T10:38:43.345Z,99278.77
2019-03-25T10:41:10.406Z,99275.20
2019-03-25T10:43:38.571Z,99263.38
2019-03-25T10:46:05.773Z,99255.41
2019-03-25T10:48:33.061Z,99250.64
2019-03-25T10:51:00.197Z,99281.59
2019-03-25T10:53:27.118Z,99260.53
2019-03-25T10:55:54.244Z,99262.30
2019-03-25T10:58:23.667Z,99257.69
2019-03-25T11:00:50.559Z,99257.56
2019-03-25T11:03:17.628Z,99258.21
2019-03-25T11:05:47.327Z,99263.30
2019-03-25T11:08:14.479Z,99260.48
2019-03-25T11:10:42.130Z,99250.46
2019-03-25T11:13:09.368Z,99261.70
2019-03-25T11:15:36.898Z,99258.44
2019-03-25T11:18:05.807Z,99257.67
2019-03-25T11:20:34.518Z,99269.48
2019-03-25T11:23:01.355Z,99279.72
2019-03-25T11:25:28.513Z,99262.21
2019-03-25T11:27:57.187Z,99262.50
2019-03-25T11:30:50.382Z,99267.16
2019-03-25T11:33:22.737Z,99273.77
2019-03-25T11:35:50.320Z,99259.87
2019-03-25T11:38:17.608Z,99269.64
2019-03-25T11:40:45.072Z,99258.15
2019-03-25T11:43:12.466Z,99259.27
2019-03-25T11:45:39.431Z,99252.52
2019-03-25T11:48:06.368Z,99260.41
2019-03-25T11:50:33.575Z,99250.77
2019-03-25T11:53:01.240Z,99248.30
2019-03-25T11:55:28.137Z,99237.70
2019-03-25T11:57:54.908Z,99243.95
2019-03-25T12:00:23.950Z,99239.59
2019-03-25T12:02:51.859Z,99237.28
2019-03-25T12:05:19.026Z,99238.02
2019-03-25T12:07:46.619Z,99227.80
2019-03-25T12:10:13.841Z,99247.34
2019-03-25T12:12:41.049Z,99226.05
2019-03-25T12:15:09.352Z,99223.66
2019-03-25T12:17:36.579Z,99237.05
2019-03-25T12:20:06.133Z,99242.62
2019-03-25T12:22:33.237Z,99241.90
2019-03-25T12:25:00.562Z,99244.45
2019-03-25T12:27:27.589Z,99257.20
2019-03-25T12:29:55.123Z,99239.36
2019-03-25T12:32:22.816Z,99237.80
2019-03-25T12:34:49.897Z,99237.73
2019-03-25T12:37:17.685Z,99235.95
2019-03-25T12:39:44.855Z,99243.91
2019-03-25T12:42:12.497Z,99237.77
2019-03-25T12:44:39.474Z,99233.88
2019-03-25T12:47:06.540Z,99230.61
2019-03-25T12:49:33.678Z,99222.39
2019-03-25T12:52:00.791Z,99212.28
2019-03-25T12:54:27.613Z,99216.92
2019-03-25T12:56:54.423Z,99211.30
2019-03-25T12:59:21.424Z,99205.84
2019-03-25T13:01:53.285Z,99193.73
2019-03-25T13:04:17.740Z,99201.35
2019-03-25T13:06:45.384Z,99197.74
2019-03-25T13:09:14.024Z,99184.20
2019-03-25T13:11:41.109Z,99182.79
2019-03-25T13:14:08.322Z,99187.45
2019-03-25T13:16:37.919Z,99191.94
2019-03-25T13:19:05.182Z,99198.58
2019-03-25T13:21:32.841Z,99210.63
2019-03-25T13:23:59.933Z,99203.97
2019-03-25T13:26:26.869Z,99205.33
2019-03-25T13:29:02.080Z,99198.36
2019-03-25T13:31:23.444Z,99200.97
2019-03-25T13:33:50.483Z,99206.16
2019-03-25T13:36:17.279Z,99198.48
2019-03-25T13:38:44.790Z,99194.20
2019-03-25T13:41:11.862Z,99195.20
2019-03-25T13:43:39.005Z,99176.66
2019-03-25T13:46:06.205Z,99185.49
2019-03-25T13:48:33.274Z,99197.92
2019-03-25T13:51:02.256Z,99216.15
2019-03-25T13:53:30.664Z,99260.05
2019-03-25T13:55:57.442Z,99278.31
2019-03-25T13:58:24.274Z,99329.34
2019-03-25T14:00:51.180Z,99340.52
2019-03-25T14:03:17.973Z,99345.39
2019-03-25T14:05:44.987Z,99335.74
2019-03-25T14:08:11.940Z,99337.37
2019-03-25T14:10:38.816Z,99279.05
2019-03-25T14:13:06.124Z,99274.58
2019-03-25T14:15:33.695Z,99266.97
2019-03-25T14:18:00.932Z,99257.20
2019-03-25T14:20:27.900Z,99254.18
2019-03-25T14:22:54.770Z,99263.61
2019-03-25T14:25:21.664Z,99262.56
2019-03-25T14:27:48.571Z,99263.66
2019-03-25T14:30:15.838Z,99267.73
2019-03-25T14:32:42.664Z,99271.55
2019-03-25T14:35:10.004Z,99274.20
2019-03-25T14:37:36.890Z,99280.27
2019-03-25T14:40:06.229Z,99284.95
2019-03-25T14:42:33.608Z,99287.92
2019-03-25T14:45:00.469Z,99297.88
2019-03-25T14:47:27.837Z,99285.29
2019-03-25T14:49:54.680Z,99295.01
2019-03-25T14:52:21.591Z,99293.92
2019-03-25T14:54:48.538Z,99296.88
2019-03-25T14:57:15.632Z,99293.05
2019-03-25T14:59:42.690Z,99290.92
2019-03-25T15:02:10.074Z,99301.47
2019-03-25T15:04:37.149Z,99292.37
2019-03-25T15:07:03.985Z,99294.68
2019-03-25T15:09:33.642Z,99288.83
2019-03-25T15:12:00.987Z,99300.63
2019-03-25T15:14:27.850Z,99297.30
2019-03-25T15:16:55.452Z,99285.63
2019-03-25T15:19:22.593Z,99289.22
2019-03-25T15:21:51.830Z,99280.48
2019-03-25T15:24:18.607Z,99276.22
2019-03-25T15:26:47.127Z,99278.91
2019-03-25T15:29:16.973Z,99282.07
2019-03-25T15:31:44.007Z,99285.97
2019-03-25T15:34:13.617Z,99285.93
2019-03-25T15:36:40.665Z,99299.77
2019-03-25T15:39:08.132Z,99308.47
2019-03-25T15:41:37.424Z,99312.36
2019-03-25T15:44:04.519Z,99340.28
2019-03-25T15:46:35.578Z,99331.58
2019-03-25T15:49:06.228Z,99348.21
2019-03-25T15:51:34.506Z,99369.08
2019-03-25T15:54:03.859Z,99366.11
2019-03-25T15:56:30.676Z,99363.92
2019-03-25T15:58:57.452Z,99368.85
2019-03-25T16:01:24.422Z,99364.30
2019-03-25T16:03:52.898Z,99351.88
2019-03-25T16:06:22.240Z,99361.97
2019-03-25T16:08:49.177Z,99367.36
2019-03-25T16:11:15.964Z,99364.34
2019-03-25T16:13:42.809Z,99365.58
2019-03-25T16:16:09.773Z,99365.28
2019-03-25T16:18:39.715Z,99364.19
2019-03-25T16:21:07.316Z,99354.22
2019-03-25T16:23:34.593Z,99373.59
2019-03-25T16:26:01.749Z,99370.86
2019-03-25T16:28:30.558Z,99374.44
2019-03-25T16:31:00.483Z,99368.81
2019-03-25T16:33:27.623Z,99366.34
2019-03-25T16:35:54.376Z,99368.33
2019-03-25T16:38:21.720Z,99371.01
2019-03-25T16:40:48.537Z,99365.06
2019-03-25T16:43:15.690Z,99368.06
2019-03-25T16:45:42.840Z,99368.87
2019-03-25T16:48:10.055Z,99367.82
2019-03-25T16:50:36.960Z,99365.11
2019-03-25T16:53:04.530Z,99360.30
2019-03-25T16:55:33.422Z,99353.24
2019-03-25T16:58:00.222Z,99358.09
2019-03-25T17:00:27.842Z,99352.93
2019-03-25T17:02:54.968Z,99359.45
2019-03-25T17:05:22.593Z,99361.09
2019-03-25T17:07:51.473Z,99364.86
2019-03-25T17:10:18.233Z,99374.05
2019-03-25T17:12:45.096Z,99380.04
2019-03-25T17:15:14.118Z,99381.38
2019-03-25T17:17:41.448Z,99381.97
2019-03-25T17:20:09.152Z,99384.94
2019-03-25T17:22:36.376Z,99386.28
2019-03-25T17:25:06.051Z,99389.78
2019-03-25T17:27:33.311Z,99388.16
2019-03-25T17:30:00.301Z,99385.20
2019-03-25T17:32:27.262Z,99386.58
2019-03-25T17:34:53.978Z,99386.05
2019-03-25T17:37:20.917Z,99387.68
2019-03-25T17:39:48.138Z,99379.85
2019-03-25T17:42:14.997Z,99390.92
2019-03-25T17:44:43.659Z,99390.38
2019-03-25T17:47:10.416Z,99393.91
2019-03-25T17:49:37.262Z,99395.81
2019-03-25T17:52:04.300Z,99400.39
2019-03-25T17:54:31.200Z,99403.63
2019-03-25T17:56:58.499Z,99404.19
2019-03-25T17:59:25.622Z,99402.00
2019-03-25T18:01:52.487Z,99407.42
2019-03-25T18:04:19.281Z,99406.05
2019-03-25T18:06:46.345Z,99407.69
2019-03-25T18:09:13.219Z,99412.56
2019-03-25T18:11:40.205Z,99406.34
2019-03-25T18:14:07.080Z,99412.56
2019-03-25T18:16:34.270Z,99413.36
2019-03-25T18:19:01.483Z,99418.78
2019-03-25T18:21:28.689Z,99418.80
2019-03-25T18:23:56.010Z,99421.22
2019-03-25T18:26:22.851Z,99431.77
2019-03-25T18:28:49.780Z,99436.92
2019-03-25T18:31:16.735Z,99444.77
2019-03-25T18:33:43.815Z,99441.50
2019-03-25T18:36:12.142Z,99458.55
2019-03-25T18:38:39.031Z,99454.75
2019-03-25T18:41:05.971Z,99458.54
2019-03-25T18:43:32.924Z,99456.90
2019-03-25T18:45:59.958Z,99463.67
2019-03-25T18:48:27.026Z,99469.89
2019-03-25T18:50:54.452Z,99466.11
2019-03-25T18:53:21.697Z,99473.66
2019-03-25T18:55:48.855Z,99484.23
2019-03-25T18:58:16.310Z,99491.53
2019-03-25T19:00:43.328Z,99495.85
2019-03-25T19:03:10.181Z,99506.94
2019-03-25T19:05:37.692Z,99523.92
2019-03-25T19:08:05.321Z,99533.58
2019-03-25T19:10:32.202Z,99539.46
2019-03-25T19:12:59.544Z,99544.81
2019-03-25T19:15:26.754Z,99541.81
2019-03-25T19:17:53.562Z,99546.64
2019-03-25T19:20:20.461Z,99548.19
2019-03-25T19:22:47.626Z,99543.30
2019-03-25T19:25:14.962Z,99545.48
2019-03-25T19:27:44.730Z,99554.66
2019-03-25T19:30:11.901Z,99544.63
2019-03-25T19:32:39.158Z,99550.23
2019-03-25T19:35:08.453Z,99559.89
2019-03-25T19:37:36.229Z,99555.84
2019-03-25T19:40:07.179Z,99553.63
2019-03-25T19:42:34.062Z,99550.82
2019-03-25T19:45:00.812Z,99555.30
2019-03-25T19:47:27.938Z,99549.03
2019-03-25T19:49:54.730Z,99555.39
2019-03-25T19:52:21.606Z,99562.84
2019-03-25T19:54:48.419Z,99562.69
2019-03-25T19:57:15.247Z,99577.23
2019-03-25T19:59:42.332Z,99587.97
2019-03-25T20:02:18.293Z,99582.52
2019-03-25T20:04:37.850Z,99579.61
2019-03-25T20:07:05.685Z,99596.89
2019-03-25T20:09:32.613Z,99595.38
2019-03-25T20:11:59.500Z,99600.33
2019-03-25T20:14:26.740Z,99607.79
2019-03-25T20:16:53.750Z,99609.12
2019-03-25T20:19:20.833Z,99606.66
2019-03-25T20:21:48.580Z,99616.08
2019-03-25T20:24:15.535Z,99607.72
2019-03-25T20:26:42.765Z,99608.73
2019-03-25T20:29:09.901Z,99610.63
2019-03-25T20:31:36.693Z,99618.95
2019-03-25T20:34:10.835Z,99627.31
2019-03-25T20:36:32.550Z,99621.42
2019-03-25T20:39:00.292Z,99627.53
2019-03-25T20:41:28.233Z,99628.00
2019-03-25T20:43:55.115Z,99630.79
2019-03-25T20:46:22.459Z,99625.70
2019-03-25T20:48:49.250Z,99633.05
2019-03-25T20:51:16.612Z,99624.57
2019-03-25T20:53:43.621Z,99629.02
2019-03-25T20:56:10.926Z,99635.25
2019-03-25T20:58:37.874Z,99634.53
2019-03-25T21:01:05.214Z,99637.81
2019-03-25T21:03:32.158Z,99644.27
2019-03-25T21:05:58.936Z,99649.78
2019-03-25T21:08:25.899Z,99645.22
2019-03-25T21:10:52.835Z,99643.44
2019-03-25T21:13:19.817Z,99650.05
2019-03-25T21:15:47.188Z,99654.05
2019-03-25T21:18:14.880Z,99660.83
2019-03-25T21:20:44.811Z,99655.04
2019-03-25T21:23:11.793Z,99658.80
2019-03-25T21:25:38.640Z,99663.67
2019-03-25T21:28:05.598Z,99659.14
2019-03-25T21:30:32.435Z,99661.41
2019-03-25T21:33:00.210Z,99659.61
2019-03-25T21:35:27.227Z,99667.34
2019-03-25T21:37:54.128Z,99671.47
2019-03-25T21:40:20.840Z,99679.53
2019-03-25T21:42:47.942Z,99681.88
2019-03-25T21:45:14.885Z,99688.01
2019-03-25T21:47:41.812Z,99684.59
2019-03-25T21:50:12.265Z,99691.40
2019-03-25T21:52:39.129Z,99693.36
2019-03-25T21:55:06.685Z,99688.77
2019-03-25T21:57:33.557Z,99692.53
2019-03-25T22:00:00.403Z,99700.96
2019-03-25T22:02:28.291Z,99699.33
2019-03-25T22:04:57.241Z,99706.50
2019-03-25T22:07:23.720Z,99706.16
2019-03-25T22:09:50.920Z,99708.70
2019-03-25T22:12:18.245Z,99710.38
2019-03-25T22:14:45.187Z,99701.75
2019-03-25T22:17:12.192Z,99708.14
2019-03-25T22:19:39.455Z,99710.20
2019-03-25T22:22:07.074Z,99706.16
2019-03-25T22:24:33.913Z,99714.64
2019-03-25T22:27:03.600Z,99715.50
2019-03-25T22:29:30.400Z,99718.20
2019-03-25T22:31:57.197Z,99722.79
2019-03-25T22:34:24.299Z,99726.22
2019-03-25T22:36:51.445Z,99722.39
2019-03-25T22:39:18.168Z,99727.43
2019-03-25T22:41:45.135Z,99734.72
2019-03-25T22:44:11.973Z,99731.55
2019-03-25T22:46:38.774Z,99730.41
2019-03-25T22:49:05.677Z,99732.94
2019-03-25T22:51:32.529Z,99737.62
2019-03-25T22:53:59.475Z,99739.56
2019-03-25T22:56:26.346Z,99743.81
2019-03-25T22:58:53.147Z,99747.00
2019-03-25T23:01:20.265Z,99752.94
2019-03-25T23:03:48.599Z,99758.12
2019-03-25T23:06:15.525Z,99755.02
2019-03-25T23:08:42.429Z,99761.83
2019-03-25T23:11:09.566Z,99760.67
2019-03-25T23:13:36.864Z,99765.16
2019-03-25T23:16:03.972Z,99765.73
2019-03-25T23:18:30.966Z,99759.83
2019-03-25T23:20:57.724Z,99762.19
2019-03-25T23:23:24.521Z,99770.05
2019-03-25T23:25:51.470Z,99768.05
2019-03-25T23:28:18.339Z,99770.89
2019-03-25T23:30:45.185Z,99772.23
2019-03-25T23:33:13.457Z,99768.14
2019-03-25T23:35:40.233Z,99775.38
2019-03-25T23:38:07.622Z,99775.56
2019-03-25T23:40:34.777Z,99774.59
2019-03-25T23:43:01.863Z,99776.65
2019-03-25T23:45:28.715Z,99775.06
2019-03-25T23:47:55.442Z,99779.11
2019-03-25T23:50:22.220Z,99779.91
2019-03-25T23:52:48.959Z,99775.87
2019-03-25T23:55:15.845Z,99776.86
2019-03-25T23:57:43.289Z,99777.14
